createdAt,value
2022-10-25T00:01:20.979Z,14.31
2022-10-25T00:03:47.660Z,14.16
2022-10-25T00:06:14.670Z,14.24
2022-10-25T00:08:41.389Z,14.10
2022-10-25T00:11:10.574Z,14.09
2022-10-25T00:13:37.057Z,14.06
2022-10-25T00:16:03.573Z,13.98
2022-10-25T00:18:29.935Z,13.93
2022-10-25T00:20:56.291Z,13.83
2022-10-25T00:23:22.666Z,13.86
2022-10-25T00:25:49.017Z,13.91
2022-10-25T00:28:15.346Z,13.87
2022-10-25T00:30:41.718Z,13.69
2022-10-25T00:33:08.104Z,13.60
2022-10-25T00:35:36.344Z,13.53
2022-10-25T00:38:02.753Z,13.52
2022-10-25T00:40:29.182Z,13.61
2022-10-25T00:42:55.522Z,13.65
2022-10-25T00:45:27.627Z,13.81
2022-10-25T00:48:01.894Z,13.92
2022-10-25T00:50:44.275Z,13.96
2022-10-25T00:53:32.866Z,13.97
2022-10-25T00:56:21.436Z,13.93
2022-10-25T00:58:52.026Z,13.90
2022-10-25T01:01:18.670Z,13.93
2022-10-25T01:03:48.963Z,13.92
2022-10-25T01:06:21.825Z,13.69
2022-10-25T01:08:49.947Z,13.67
2022-10-25T01:13:43.815Z,13.56
2022-10-25T01:16:22.700Z,13.67
2022-10-25T01:19:23.523Z,13.76
2022-10-25T01:21:56.924Z,13.72
2022-10-25T01:24:42.604Z,13.73
2022-10-25T01:27:36.696Z,13.68
2022-10-25T01:30:11.265Z,13.74
2022-10-25T01:32:53.838Z,13.75
2022-10-25T01:35:25.899Z,13.78
2022-10-25T01:38:14.177Z,13.91
2022-10-25T01:41:08.353Z,13.95
2022-10-25T01:43:41.222Z,13.89
2022-10-25T01:46:25.762Z,13.83
2022-10-25T01:49:02.787Z,13.74
2022-10-25T01:51:29.204Z,13.61
2022-10-25T01:53:55.759Z,13.39
2022-10-25T01:56:27.369Z,13.25
2022-10-25T01:59:31.171Z,13.17
2022-10-25T02:02:38.422Z,13.32
2022-10-25T02:05:32.496Z,13.25
2022-10-25T02:08:12.560Z,13.31
2022-10-25T02:10:44.329Z,13.48
2022-10-25T02:13:10.740Z,13.53
2022-10-25T02:15:40.954Z,13.52
2022-10-25T02:18:14.575Z,13.39
2022-10-25T02:20:46.634Z,13.20
2022-10-25T02:23:15.756Z,13.32
2022-10-25T02:25:43.179Z,13.48
2022-10-25T02:28:12.920Z,13.38
2022-10-25T02:30:42.423Z,13.36
2022-10-25T02:33:09.027Z,13.23
2022-10-25T02:35:35.372Z,13.28
2022-10-25T02:38:01.913Z,13.42
2022-10-25T02:40:28.711Z,13.53
2022-10-25T02:42:55.054Z,13.49
2022-10-25T02:45:21.487Z,13.67
2022-10-25T02:47:48.141Z,13.69
2022-10-25T02:50:14.943Z,13.74
2022-10-25T02:52:41.351Z,13.80
2022-10-25T02:55:08.133Z,13.84
2022-10-25T02:57:36.016Z,13.85
2022-10-25T03:00:04.831Z,13.72
2022-10-25T03:02:31.181Z,13.56
2022-10-25T03:04:57.506Z,13.59
2022-10-25T03:07:24.174Z,13.52
2022-10-25T03:09:50.586Z,13.52
2022-10-25T03:12:16.909Z,13.43
2022-10-25T03:14:43.667Z,13.31
2022-10-25T03:17:11.133Z,13.47
2022-10-25T03:19:37.458Z,13.61
2022-10-25T03:22:03.825Z,13.45
2022-10-25T03:24:30.137Z,13.41
2022-10-25T03:26:56.467Z,13.44
2022-10-25T03:29:22.826Z,13.32
2022-10-25T03:31:49.228Z,13.34
2022-10-25T03:34:15.584Z,13.20
2022-10-25T03:36:42.020Z,13.19
2022-10-25T03:39:08.491Z,13.11
2022-10-25T03:41:34.947Z,12.73
2022-10-25T03:44:01.401Z,12.75
2022-10-25T03:46:27.763Z,12.68
2022-10-25T03:48:54.157Z,12.67
2022-10-25T03:51:20.510Z,12.61
2022-10-25T03:53:46.879Z,12.45
2022-10-25T03:56:13.214Z,12.41
2022-10-25T03:58:39.597Z,12.30
2022-10-25T04:01:08.925Z,12.35
2022-10-25T04:03:35.894Z,12.28
2022-10-25T04:06:02.397Z,12.20
2022-10-25T04:08:28.730Z,12.22
2022-10-25T04:10:55.060Z,12.15
2022-10-25T04:13:21.421Z,12.11
2022-10-25T04:15:47.780Z,12.13
2022-10-25T04:18:14.129Z,12.07
2022-10-25T04:20:40.494Z,12.06
2022-10-25T04:23:06.847Z,11.94
2022-10-25T04:25:33.221Z,11.97
2022-10-25T04:28:00.329Z,11.90
2022-10-25T04:30:26.787Z,11.91
2022-10-25T04:32:53.131Z,11.83
2022-10-25T04:35:19.533Z,12.32
2022-10-25T04:37:45.903Z,11.99
2022-10-25T04:40:12.811Z,11.78
2022-10-25T04:42:39.202Z,11.83
2022-10-25T04:45:05.983Z,12.01
2022-10-25T04:47:32.641Z,12.23
2022-10-25T04:49:59.322Z,12.32
2022-10-25T04:52:25.859Z,12.40
2022-10-25T04:54:52.179Z,12.38
2022-10-25T04:57:18.594Z,12.59
2022-10-25T04:59:44.928Z,12.80
2022-10-25T05:02:12.328Z,12.90
2022-10-25T05:04:38.697Z,13.11
2022-10-25T05:07:05.103Z,13.14
2022-10-25T05:09:31.465Z,13.27
2022-10-25T05:11:57.852Z,13.38
2022-10-25T05:14:24.262Z,13.46
2022-10-25T05:16:50.633Z,13.46
2022-10-25T05:19:17.064Z,13.46
2022-10-25T05:21:43.451Z,13.52
2022-10-25T05:24:09.925Z,13.59
2022-10-25T05:26:36.315Z,13.57
2022-10-25T05:29:05.523Z,13.57
2022-10-25T05:31:34.295Z,13.64
2022-10-25T05:34:01.299Z,13.73
2022-10-25T05:36:29.358Z,13.77
2022-10-25T05:38:56.236Z,13.84
2022-10-25T05:41:22.802Z,13.98
2022-10-25T05:43:49.161Z,13.83
2022-10-25T05:46:18.786Z,13.88
2022-10-25T05:48:48.720Z,13.91
2022-10-25T05:54:10.626Z,14.04
2022-10-25T05:56:37.508Z,14.11
2022-10-25T05:59:11.529Z,14.15
2022-10-25T06:01:43.803Z,14.10
2022-10-25T06:04:11.170Z,14.17
2022-10-25T06:06:39.389Z,14.18
2022-10-25T06:09:06.902Z,14.22
2022-10-25T06:11:33.769Z,14.13
2022-10-25T06:14:00.429Z,14.15
2022-10-25T06:16:26.864Z,14.13
2022-10-25T06:18:54.478Z,14.21
2022-10-25T06:21:24.584Z,14.23
2022-10-25T06:23:51.320Z,14.23
2022-10-25T06:26:21.734Z,14.31
2022-10-25T06:28:51.032Z,14.40
2022-10-25T06:31:18.963Z,14.36
2022-10-25T06:33:46.235Z,14.38
2022-10-25T06:36:16.656Z,14.36
2022-10-25T06:38:44.264Z,14.36
2022-10-25T06:41:31.330Z,14.29
2022-10-25T06:44:03.839Z,14.46
2022-10-25T06:46:37.966Z,14.59
2022-10-25T06:49:10.313Z,14.58
2022-10-25T06:51:36.723Z,14.68
2022-10-25T06:54:07.935Z,14.67
2022-10-25T06:56:35.021Z,14.74
2022-10-25T06:59:02.178Z,14.77
2022-10-25T07:01:28.831Z,14.79
2022-10-25T07:03:55.326Z,14.81
2022-10-25T07:06:27.849Z,14.70
2022-10-25T07:09:01.080Z,14.62
2022-10-25T07:11:30.223Z,14.76
2022-10-25T07:13:58.546Z,14.79
2022-10-25T07:16:26.306Z,14.85
2022-10-25T07:18:52.992Z,14.87
2022-10-25T07:21:21.840Z,14.90
2022-10-25T07:23:50.029Z,14.87
2022-10-25T07:26:21.933Z,14.94
2022-10-25T07:28:49.861Z,15.09
2022-10-25T07:31:21.960Z,15.24
2022-10-25T07:33:49.395Z,15.24
2022-10-25T07:36:16.045Z,15.35
2022-10-25T07:38:42.518Z,15.43
2022-10-25T07:41:09.523Z,15.46
2022-10-25T07:43:37.500Z,15.46
2022-10-25T07:46:05.086Z,15.66
2022-10-25T07:48:31.489Z,15.50
2022-10-25T07:50:57.965Z,15.55
2022-10-25T07:53:24.309Z,15.61
2022-10-25T07:55:52.078Z,15.63
2022-10-25T07:58:19.070Z,15.70
2022-10-25T08:00:45.549Z,16.05
2022-10-25T08:03:13.230Z,15.83
2022-10-25T08:05:39.901Z,16.09
2022-10-25T08:08:06.440Z,16.03
2022-10-25T08:10:32.798Z,16.08
2022-10-25T08:12:59.251Z,16.22
2022-10-25T08:15:25.699Z,15.93
2022-10-25T08:17:59.262Z,16.16
2022-10-25T08:20:43.421Z,16.49
2022-10-25T08:23:13.283Z,16.34
2022-10-25T08:25:40.163Z,16.67
2022-10-25T08:28:06.518Z,16.55
2022-10-25T08:30:33.127Z,16.45
2022-10-25T08:32:59.505Z,16.58
2022-10-25T08:35:25.938Z,16.54
2022-10-25T08:37:52.297Z,16.76
2022-10-25T08:40:24.655Z,16.66
2022-10-25T08:43:20.787Z,16.65
2022-10-25T08:46:10.521Z,16.85
2022-10-25T08:48:43.597Z,16.85
2022-10-25T08:51:35.805Z,16.75
2022-10-25T08:54:25.155Z,16.90
2022-10-25T08:57:14.601Z,16.95
2022-10-25T08:59:45.396Z,16.83
2022-10-25T09:02:18.252Z,16.93
2022-10-25T09:04:44.936Z,17.04
2022-10-25T09:07:42.780Z,17.04
2022-10-25T09:10:17.531Z,17.14
2022-10-25T09:12:55.907Z,17.15
2022-10-25T09:15:53.422Z,17.15
2022-10-25T09:18:29.966Z,17.31
2022-10-25T09:20:58.516Z,17.27
2022-10-25T09:23:31.119Z,17.10
2022-10-25T09:26:21.032Z,17.22
2022-10-25T09:28:57.973Z,17.28
2022-10-25T09:31:25.537Z,17.71
2022-10-25T09:34:01.636Z,17.57
2022-10-25T09:36:37.856Z,17.47
2022-10-25T09:39:16.144Z,17.72
2022-10-25T09:41:48.347Z,18.05
2022-10-25T09:44:40.813Z,18.35
2022-10-25T09:47:32.544Z,18.15
2022-10-25T09:50:04.285Z,18.45
2022-10-25T09:52:41.921Z,18.31
2022-10-25T09:55:11.518Z,18.29
2022-10-25T09:57:38.224Z,18.17
2022-10-25T10:00:05.853Z,18.04
2022-10-25T10:02:32.395Z,18.14
2022-10-25T10:04:58.870Z,18.33
2022-10-25T10:07:33.989Z,18.30
2022-10-25T10:10:05.459Z,18.20
2022-10-25T10:12:53.318Z,18.17
2022-10-25T10:15:27.575Z,18.30
2022-10-25T10:18:18.912Z,17.98
2022-10-25T10:21:00.650Z,18.20
2022-10-25T10:23:29.991Z,17.99
2022-10-25T10:25:56.765Z,18.10
2022-10-25T10:28:23.211Z,18.20
2022-10-25T10:30:55.010Z,17.96
2022-10-25T10:33:22.794Z,18.24
2022-10-25T10:35:53.647Z,18.37
2022-10-25T10:38:27.173Z,18.27
2022-10-25T10:41:13.429Z,18.09
2022-10-25T10:43:40.433Z,18.32
2022-10-25T10:46:15.016Z,18.36
2022-10-25T10:48:44.318Z,18.35
2022-10-25T10:51:32.051Z,18.39
2022-10-25T10:54:27.359Z,18.64
2022-10-25T10:57:42.698Z,18.57
2022-10-25T11:00:21.970Z,18.58
2022-10-25T11:02:49.316Z,18.82
2022-10-25T11:05:27.578Z,18.72
2022-10-25T11:07:57.150Z,18.90
2022-10-25T11:10:33.255Z,19.08
2022-10-25T11:13:17.486Z,18.96
2022-10-25T11:16:02.449Z,18.91
2022-10-25T11:18:56.347Z,18.96
2022-10-25T11:22:00.393Z,19.00
2022-10-25T11:24:44.275Z,19.03
2022-10-25T11:27:35.778Z,18.95
2022-10-25T11:30:14.166Z,19.11
2022-10-25T11:32:48.894Z,19.10
2022-10-25T11:35:44.906Z,19.20
2022-10-25T11:38:15.849Z,18.76
2022-10-25T11:41:19.821Z,19.10
2022-10-25T11:43:59.618Z,19.15
2022-10-25T11:46:40.853Z,19.26
2022-10-25T11:49:19.349Z,19.12
2022-10-25T11:52:07.119Z,19.33
2022-10-25T11:54:47.553Z,19.40
2022-10-25T11:57:35.731Z,19.37
2022-10-25T12:00:07.060Z,19.56
2022-10-25T12:02:52.454Z,19.56
2022-10-25T12:05:43.571Z,19.51
2022-10-25T12:08:47.753Z,19.29
2022-10-25T12:11:19.258Z,19.46
2022-10-25T12:13:50.618Z,19.50
2022-10-25T12:16:19.936Z,19.64
2022-10-25T12:19:19.357Z,19.60
2022-10-25T12:21:56.691Z,19.42
2022-10-25T12:24:39.722Z,19.45
2022-10-25T12:27:08.999Z,19.61
2022-10-25T12:29:43.983Z,19.57
2022-10-25T12:32:20.072Z,19.44
2022-10-25T12:34:50.911Z,19.41
2022-10-25T12:37:47.469Z,19.55
2022-10-25T12:40:18.855Z,19.43
2022-10-25T12:42:49.995Z,19.46
2022-10-25T12:45:58.282Z,19.76
2022-10-25T12:49:09.732Z,19.77
2022-10-25T12:52:18.019Z,19.57
2022-10-25T12:55:08.462Z,19.60
2022-10-25T12:57:57.794Z,19.31
2022-10-25T13:00:24.592Z,19.16
2022-10-25T13:02:57.009Z,19.39
2022-10-25T13:05:42.051Z,19.53
2022-10-25T13:08:11.240Z,19.55
2022-10-25T13:10:45.552Z,19.65
2022-10-25T13:13:26.845Z,19.69
2022-10-25T13:15:57.478Z,19.62
2022-10-25T13:18:44.475Z,19.32
2022-10-25T13:21:54.790Z,19.66
2022-10-25T13:24:41.428Z,19.58
2022-10-25T13:27:29.494Z,20.02
2022-10-25T13:33:21.491Z,20.14
2022-10-25T13:35:50.766Z,20.24
2022-10-25T13:38:22.955Z,20.27
2022-10-25T13:41:18.544Z,20.36
2022-10-25T13:44:21.412Z,20.25
2022-10-25T13:46:48.163Z,19.99
2022-10-25T13:49:34.595Z,19.82
2022-10-25T13:52:05.969Z,19.69
2022-10-25T13:54:47.780Z,19.52
2022-10-25T13:57:45.229Z,19.37
2022-10-25T14:00:23.944Z,19.42
2022-10-25T14:03:08.598Z,19.38
2022-10-25T14:05:53.254Z,19.65
2022-10-25T14:09:01.132Z,19.93
2022-10-25T14:11:33.290Z,19.99
2022-10-25T14:14:28.532Z,20.13
2022-10-25T14:17:19.545Z,19.98
2022-10-25T14:19:54.755Z,19.78
2022-10-25T14:22:33.280Z,19.89
2022-10-25T14:25:19.217Z,19.81
2022-10-25T14:27:45.646Z,20.00
2022-10-25T14:30:13.493Z,19.99
2022-10-25T14:32:49.804Z,19.89
2022-10-25T14:35:16.906Z,19.97
2022-10-25T14:37:43.265Z,19.65
2022-10-25T14:40:36.161Z,19.64
2022-10-25T14:43:20.349Z,19.57
2022-10-25T14:46:09.809Z,19.51
2022-10-25T14:48:36.656Z,19.56
2022-10-25T14:51:36.589Z,19.45
2022-10-25T14:54:11.896Z,19.37
2022-10-25T14:56:50.361Z,19.39
2022-10-25T14:59:29.299Z,19.30
2022-10-25T15:02:15.961Z,19.51
2022-10-25T15:04:46.769Z,19.31
2022-10-25T15:07:23.581Z,19.38
2022-10-25T15:09:52.876Z,19.51
2022-10-25T15:12:22.759Z,19.38
2022-10-25T15:14:49.174Z,19.33
2022-10-25T15:17:19.530Z,19.18
2022-10-25T15:20:19.159Z,18.94
2022-10-25T15:22:48.284Z,19.00
2022-10-25T15:25:23.913Z,19.00
2022-10-25T15:27:52.245Z,18.74
2022-10-25T15:30:35.623Z,18.50
2022-10-25T15:33:03.422Z,18.64
2022-10-25T15:35:32.476Z,18.45
2022-10-25T15:37:59.083Z,18.49
2022-10-25T15:40:25.460Z,18.29
2022-10-25T15:42:51.794Z,18.23
2022-10-25T15:45:18.138Z,18.27
2022-10-25T15:47:47.182Z,18.19
2022-10-25T15:50:19.615Z,18.17
2022-10-25T15:52:47.040Z,18.10
2022-10-25T15:55:27.457Z,18.03
2022-10-25T15:57:54.913Z,17.91
2022-10-25T16:00:27.879Z,17.85
2022-10-25T16:02:54.881Z,17.78
2022-10-25T16:05:22.328Z,17.54
2022-10-25T16:07:49.583Z,17.33
2022-10-25T16:10:16.458Z,17.10
2022-10-25T16:12:45.736Z,16.88
2022-10-25T16:15:15.224Z,16.75
2022-10-25T16:17:42.283Z,16.45
2022-10-25T16:20:20.288Z,16.31
2022-10-25T16:22:47.804Z,16.40
2022-10-25T16:25:15.270Z,16.20
2022-10-25T16:27:43.084Z,16.08
2022-10-25T16:30:14.982Z,16.07
2022-10-25T16:32:41.733Z,15.80
2022-10-25T16:35:08.914Z,15.71
2022-10-25T16:37:35.559Z,15.61
2022-10-25T16:40:02.364Z,15.50
2022-10-25T16:42:34.079Z,15.60
2022-10-25T16:45:01.812Z,15.59
2022-10-25T16:47:28.678Z,15.41
2022-10-25T16:49:55.102Z,15.13
2022-10-25T16:52:21.832Z,14.94
2022-10-25T16:54:48.274Z,14.93
2022-10-25T16:57:14.929Z,14.83
2022-10-25T16:59:41.261Z,14.74
2022-10-25T17:02:16.492Z,14.60
2022-10-25T17:04:43.001Z,14.49
2022-10-25T17:07:09.441Z,14.17
2022-10-25T17:09:35.788Z,13.94
2022-10-25T17:12:02.165Z,13.89
2022-10-25T17:14:28.496Z,13.95
2022-10-25T17:16:56.661Z,13.90
2022-10-25T17:19:25.823Z,13.95
2022-10-25T17:21:52.664Z,14.08
2022-10-25T17:24:19.141Z,14.28
2022-10-25T17:26:45.521Z,13.98
2022-10-25T17:29:11.887Z,13.87
2022-10-25T17:31:38.388Z,13.86
2022-10-25T17:34:04.779Z,13.95
2022-10-25T17:36:32.268Z,13.92
2022-10-25T17:38:59.659Z,13.98
2022-10-25T17:41:26.149Z,13.74
2022-10-25T17:43:55.971Z,13.64
2022-10-25T17:46:25.737Z,13.44
2022-10-25T17:48:58.455Z,13.56
2022-10-25T17:51:24.872Z,13.70
2022-10-25T17:53:54.088Z,13.76
2022-10-25T17:56:21.923Z,13.69
2022-10-25T17:58:49.460Z,13.69
2022-10-25T18:01:18.416Z,13.62
2022-10-25T18:03:45.382Z,13.69
2022-10-25T18:06:14.035Z,13.72
2022-10-25T18:08:41.376Z,13.64
2022-10-25T18:11:09.207Z,13.52
2022-10-25T18:13:37.600Z,13.51
2022-10-25T18:18:38.050Z,13.31
2022-10-25T18:21:13.547Z,13.16
2022-10-25T18:23:41.086Z,13.08
2022-10-25T18:26:09.043Z,13.22
2022-10-25T18:28:35.925Z,13.01
2022-10-25T18:31:04.459Z,13.20
2022-10-25T18:33:32.247Z,13.19
2022-10-25T18:36:03.539Z,13.19
2022-10-25T18:38:29.972Z,13.08
2022-10-25T18:40:56.750Z,12.93
2022-10-25T18:43:24.244Z,12.84
2022-10-25T18:45:56.385Z,12.72
2022-10-25T18:48:22.795Z,12.66
2022-10-25T18:50:49.121Z,12.56
2022-10-25T18:53:19.521Z,12.55
2022-10-25T18:55:47.541Z,12.62
2022-10-25T18:58:15.017Z,12.50
2022-10-25T19:00:43.139Z,12.40
2022-10-25T19:03:11.655Z,12.38
2022-10-25T19:05:39.936Z,12.35
2022-10-25T19:08:07.851Z,12.40
2022-10-25T19:10:38.335Z,12.37
2022-10-25T19:13:05.624Z,12.29
2022-10-25T19:15:32.406Z,12.32
2022-10-25T19:17:58.991Z,12.27
2022-10-25T19:20:25.764Z,12.11
2022-10-25T19:22:53.419Z,12.16
2022-10-25T19:25:23.070Z,12.19
2022-10-25T19:27:50.703Z,12.19
2022-10-25T19:30:17.415Z,12.07
2022-10-25T19:32:43.756Z,12.24
2022-10-25T19:35:10.118Z,12.15
2022-10-25T19:37:39.133Z,12.19
2022-10-25T19:40:07.106Z,11.97
2022-10-25T19:42:33.504Z,12.01
2022-10-25T19:47:33.392Z,11.91
2022-10-25T19:49:59.826Z,11.89
2022-10-25T19:52:26.316Z,11.68
2022-10-25T19:54:52.718Z,11.74
2022-10-25T19:57:19.109Z,11.55
2022-10-25T19:59:45.526Z,11.59
2022-10-25T20:02:11.961Z,11.74
2022-10-25T20:04:38.425Z,11.64
2022-10-25T20:07:04.909Z,11.60
2022-10-25T20:09:31.269Z,11.63
2022-10-25T20:11:57.702Z,11.72
2022-10-25T20:14:24.102Z,11.78
2022-10-25T20:16:50.536Z,11.83
2022-10-25T20:19:16.888Z,11.80
2022-10-25T20:21:43.297Z,11.63
2022-10-25T20:24:10.079Z,11.62
2022-10-25T20:26:38.825Z,11.66
2022-10-25T20:29:07.683Z,11.61
2022-10-25T20:31:34.863Z,11.67
2022-10-25T20:34:04.137Z,11.60
2022-10-25T20:36:30.931Z,11.51
2022-10-25T20:38:57.351Z,11.53
2022-10-25T20:41:29.048Z,11.45
2022-10-25T20:43:59.737Z,11.44
2022-10-25T20:46:27.628Z,11.46
2022-10-25T20:48:54.988Z,11.55
2022-10-25T20:51:21.313Z,11.48
2022-10-25T20:53:51.279Z,11.35
2022-10-25T20:56:19.474Z,11.42
2022-10-25T20:58:46.214Z,11.44
2022-10-25T21:01:12.776Z,11.37
2022-10-25T21:03:40.232Z,11.51
2022-10-25T21:06:08.460Z,11.44
2022-10-25T21:08:37.283Z,11.47
2022-10-25T21:11:06.311Z,11.57
2022-10-25T21:13:34.698Z,11.46
2022-10-25T21:16:07.541Z,11.59
2022-10-25T21:18:34.231Z,11.60
2022-10-25T21:21:02.794Z,11.49
2022-10-25T21:23:29.305Z,11.55
2022-10-25T21:26:03.469Z,11.59
2022-10-25T21:28:35.682Z,11.68
2022-10-25T21:31:03.751Z,11.50
2022-10-25T21:33:30.145Z,11.51
2022-10-25T21:36:03.306Z,11.67
2022-10-25T21:38:29.683Z,11.74
2022-10-25T21:41:04.095Z,11.60
2022-10-25T21:43:30.476Z,11.68
2022-10-25T21:45:58.840Z,11.59
2022-10-25T21:48:25.414Z,11.64
2022-10-25T21:50:55.314Z,11.61
2022-10-25T21:53:22.317Z,11.58
2022-10-25T21:55:48.767Z,11.63
2022-10-25T21:58:15.131Z,11.62
2022-10-25T22:00:42.401Z,11.66
2022-10-25T22:03:08.887Z,11.52
2022-10-25T22:05:41.736Z,11.50
2022-10-25T22:08:08.061Z,11.52
2022-10-25T22:10:34.414Z,11.58
2022-10-25T22:13:00.813Z,11.76
2022-10-25T22:15:27.601Z,11.69
2022-10-25T22:17:53.968Z,11.67
2022-10-25T22:20:20.428Z,11.58
2022-10-25T22:22:47.095Z,11.76
2022-10-25T22:25:13.760Z,11.70
2022-10-25T22:27:40.133Z,11.70
2022-10-25T22:30:07.139Z,11.72
2022-10-25T22:32:37.473Z,11.75
2022-10-25T22:35:04.042Z,11.75
2022-10-25T22:37:30.751Z,11.79
2022-10-25T22:39:57.105Z,11.84
2022-10-25T22:42:25.259Z,11.71
2022-10-25T22:44:51.613Z,11.73
2022-10-25T22:47:17.949Z,11.78
2022-10-25T22:49:44.284Z,11.94
2022-10-25T22:52:11.354Z,11.73
2022-10-25T22:54:37.689Z,11.76
2022-10-25T22:57:04.107Z,11.80
2022-10-25T22:59:30.463Z,11.88
2022-10-25T23:01:56.855Z,11.88
2022-10-25T23:04:23.356Z,11.93
2022-10-25T23:06:49.742Z,11.95
2022-10-25T23:09:16.137Z,12.00
2022-10-25T23:11:42.532Z,11.97
2022-10-25T23:14:13.429Z,12.00
2022-10-25T23:16:43.037Z,12.00
2022-10-25T23:19:09.354Z,12.03
2022-10-25T23:21:35.702Z,12.03
2022-10-25T23:24:02.088Z,11.95
2022-10-25T23:26:31.725Z,11.93
2022-10-25T23:28:58.700Z,12.00
2022-10-25T23:31:26.322Z,11.96
2022-10-25T23:33:55.044Z,12.00
2022-10-25T23:36:24.652Z,12.09
2022-10-25T23:38:52.195Z,12.06
2022-10-25T23:41:20.048Z,12.26
2022-10-25T23:43:46.419Z,12.14
2022-10-25T23:46:12.976Z,12.09
2022-10-25T23:48:39.540Z,12.16
2022-10-25T23:51:08.908Z,12.03
2022-10-25T23:53:35.975Z,11.89
2022-10-25T23:56:04.461Z,11.76
2022-10-25T23:58:30.863Z,11.61
